Terminal Aerodrome Forecast
Issued by NWS

Home | Current Version | Previous Version | Text Only | Print | Product List | Glossary Off
Versions: 1 2 3 4 5 6 7 8 9 10 11 12 13 14 15 16 17 18 19 20 21 22 23 24 25 26 27 28 29 30 31 32

000
FTUS43 KMPX 271838 AAA
TAFRWF
TAF AMD
KRWF 271838Z 2719/2818 15011KT P6SM VCSH SCT040 BKN250
      TEMPO 2719/2721 4SM TSRA BKN050CB
     FM272300 15010KT P6SM VCSH BKN050 OVC090
     FM280500 14010KT 6SM -SHRA SCT012 OVC020
     FM281200 12007KT 6SM BR BKN015 OVC020=

USA.gov is the U.S. government's official web portal to all federal, state and local government web resources and services.